createdAt,value
2018-09-27T00:02:19.444Z,11.80
2018-09-27T00:05:13.941Z,15.93
2018-09-27T00:08:01.041Z,25.77
2018-09-27T00:10:44.576Z,16.60
2018-09-27T00:13:27.287Z,13.40
2018-09-27T00:16:10.194Z,27.97
2018-09-27T00:18:54.844Z,12.43
2018-09-27T00:21:38.072Z,15.20
2018-09-27T00:24:22.575Z,11.40
2018-09-27T00:27:06.663Z,16.37
2018-09-27T00:29:49.596Z,18.17
2018-09-27T00:32:31.859Z,16.90
2018-09-27T00:35:14.661Z,28.40
2018-09-27T00:37:57.394Z,14.07
2018-09-27T00:40:40.155Z,21.03
2018-09-27T00:43:22.856Z,13.23
2018-09-27T00:46:05.879Z,14.13
2018-09-27T00:48:48.390Z,22.63
2018-09-27T00:51:31.440Z,22.43
2018-09-27T00:54:20.835Z,22.10
2018-09-27T00:57:04.638Z,15.20
2018-09-27T00:59:48.107Z,12.20
2018-09-27T01:02:31.285Z,20.97
2018-09-27T01:05:14.191Z,14.67
2018-09-27T01:07:56.627Z,16.23
2018-09-27T01:10:39.663Z,17.47
2018-09-27T01:13:22.262Z,12.93
2018-09-27T01:16:04.731Z,14.90
2018-09-27T01:18:48.283Z,11.53
2018-09-27T01:21:32.379Z,8.33
2018-09-27T01:24:14.907Z,23.07
2018-09-27T01:27:03.623Z,21.70
2018-09-27T01:29:50.853Z,13.80
2018-09-27T01:32:34.243Z,13.30
2018-09-27T01:35:18.495Z,9.07
2018-09-27T01:38:01.547Z,12.90
2018-09-27T01:40:45.413Z,12.17
2018-09-27T01:46:43.104Z,10.80
2018-09-27T01:49:25.775Z,12.03
2018-09-27T01:52:09.238Z,13.57
2018-09-27T01:54:52.468Z,10.43
2018-09-27T01:57:41.102Z,9.20
2018-09-27T02:00:23.747Z,9.90
2018-09-27T02:03:07.834Z,12.10
2018-09-27T02:05:51.195Z,8.23
2018-09-27T02:08:34.126Z,7.93
2018-09-27T02:11:16.714Z,12.67
2018-09-27T02:14:36.737Z,14.60
2018-09-27T02:41:28.789Z,11.13
2018-09-27T02:44:11.684Z,7.40
2018-09-27T02:46:54.487Z,13.27
2018-09-27T02:49:36.801Z,7.60
2018-09-27T02:52:19.995Z,7.37
2018-09-27T02:55:05.147Z,7.13
2018-09-27T02:57:49.189Z,12.03
2018-09-27T03:00:32.756Z,19.87
2018-09-27T03:03:16.327Z,5.80
2018-09-27T03:06:00.190Z,6.53
2018-09-27T03:08:42.919Z,6.93
2018-09-27T03:11:25.707Z,17.00
2018-09-27T03:14:11.556Z,10.20
2018-09-27T03:16:54.306Z,11.07
2018-09-27T03:22:57.560Z,10.03
2018-09-27T03:25:45.680Z,11.27
2018-09-27T03:28:39.473Z,10.13
2018-09-27T03:43:45.683Z,17.73
2018-09-27T04:01:50.431Z,16.80
2018-09-27T04:04:33.947Z,15.63
2018-09-27T04:07:18.224Z,23.60
2018-09-27T04:10:01.307Z,28.23
2018-09-27T04:12:48.540Z,49.40
2018-09-27T04:15:34.192Z,30.77
2018-09-27T04:18:27.017Z,36.20
2018-09-27T04:21:11.048Z,37.20
2018-09-27T04:26:41.169Z,16.63
2018-09-27T04:29:24.507Z,27.00
2018-09-27T04:42:55.207Z,17.70
2018-09-27T04:45:52.352Z,18.43
2018-09-27T04:48:36.761Z,22.00
2018-09-27T04:51:34.302Z,22.40
2018-09-27T04:54:17.410Z,41.90
2018-09-27T04:57:02.460Z,20.40
2018-09-27T04:59:45.446Z,31.70
2018-09-27T05:02:28.383Z,36.17
2018-09-27T05:05:14.258Z,35.60
2018-09-27T05:07:57.524Z,40.53
2018-09-27T05:10:41.290Z,14.80
2018-09-27T05:13:24.542Z,15.17
2018-09-27T05:16:08.584Z,39.90
2018-09-27T05:18:53.058Z,30.10
2018-09-27T05:21:37.634Z,24.13
2018-09-27T05:27:16.800Z,13.93
2018-09-27T05:29:59.846Z,39.33
2018-09-27T05:32:47.171Z,33.23
2018-09-27T05:35:30.739Z,37.37
2018-09-27T05:38:24.393Z,12.53
2018-09-27T05:41:16.872Z,39.87
2018-09-27T05:44:00.193Z,50.73
2018-09-27T05:46:43.517Z,72.07
2018-09-27T05:49:26.340Z,57.40
2018-09-27T05:52:09.152Z,35.37
2018-09-27T05:54:52.610Z,37.67
2018-09-27T05:57:36.263Z,53.77
2018-09-27T06:00:19.392Z,58.83
2018-09-27T06:03:02.350Z,62.00
2018-09-27T06:05:45.168Z,44.63
2018-09-27T06:08:28.163Z,43.53
2018-09-27T06:11:10.709Z,35.63
2018-09-27T06:13:53.254Z,40.17
2018-09-27T06:16:37.197Z,31.07
2018-09-27T06:19:20.049Z,47.03
2018-09-27T06:22:02.864Z,35.90
2018-09-27T06:24:45.612Z,56.73
2018-09-27T06:27:28.231Z,33.47
2018-09-27T06:30:10.982Z,40.53
2018-09-27T06:32:54.879Z,40.50
2018-09-27T06:35:38.897Z,33.20
2018-09-27T06:38:21.399Z,57.43
2018-09-27T06:41:04.206Z,59.13
2018-09-27T06:43:46.959Z,43.17
2018-09-27T06:46:29.822Z,47.10
2018-09-27T06:49:13.006Z,65.40
2018-09-27T06:51:56.022Z,42.67
2018-09-27T06:54:39.277Z,56.47
2018-09-27T06:57:22.008Z,47.53
2018-09-27T07:00:04.859Z,68.80
2018-09-27T07:02:47.850Z,71.87
2018-09-27T07:05:30.782Z,78.83
2018-09-27T07:08:13.358Z,59.70
2018-09-27T07:10:56.199Z,38.27
2018-09-27T07:13:39.090Z,53.47
2018-09-27T07:16:21.914Z,36.27
2018-09-27T07:19:04.718Z,34.97
2018-09-27T07:21:47.745Z,29.63
2018-09-27T07:24:30.354Z,16.13
2018-09-27T07:27:13.273Z,41.50
2018-09-27T07:29:56.367Z,21.93
2018-09-27T07:32:38.986Z,27.83
2018-09-27T07:35:21.710Z,28.53
2018-09-27T07:38:05.338Z,50.17
2018-09-27T07:40:49.163Z,30.67
2018-09-27T07:43:32.480Z,26.10
2018-09-27T07:46:15.395Z,24.60
2018-09-27T07:48:57.768Z,23.00
2018-09-27T07:51:41.350Z,20.40
2018-09-27T07:54:24.072Z,13.57
2018-09-27T07:57:07.126Z,17.40
2018-09-27T07:59:50.039Z,20.10
2018-09-27T08:02:33.153Z,24.07
2018-09-27T08:05:15.829Z,14.97
2018-09-27T08:07:59.112Z,14.00
2018-09-27T08:10:41.877Z,18.33
2018-09-27T08:13:24.722Z,23.33
2018-09-27T08:16:08.092Z,9.40
2018-09-27T08:18:51.298Z,12.10
2018-09-27T08:21:34.308Z,26.07
2018-09-27T08:24:18.325Z,13.03
2018-09-27T08:27:00.539Z,21.57
2018-09-27T08:29:43.283Z,17.93
2018-09-27T08:32:26.253Z,28.30
2018-09-27T08:35:09.246Z,22.03
2018-09-27T08:37:53.086Z,10.10
2018-09-27T08:40:35.493Z,12.87
2018-09-27T08:43:18.333Z,20.40
2018-09-27T08:46:01.115Z,19.47
2018-09-27T08:48:43.990Z,16.53
2018-09-27T08:51:26.602Z,11.33
2018-09-27T08:54:09.603Z,24.90
2018-09-27T08:56:52.448Z,16.48
2018-09-27T08:59:35.364Z,35.95
2018-09-27T09:02:18.362Z,17.37
2018-09-27T09:05:00.984Z,18.92
2018-09-27T09:07:44.219Z,16.57
2018-09-27T09:10:27.097Z,10.45
2018-09-27T09:13:10.202Z,19.92
2018-09-27T09:15:52.532Z,10.85
2018-09-27T09:18:35.354Z,11.00
2018-09-27T09:21:18.050Z,14.00
2018-09-27T09:24:01.308Z,27.75
2018-09-27T09:26:43.893Z,13.35
2018-09-27T09:29:26.731Z,17.30
2018-09-27T09:32:09.638Z,20.88
2018-09-27T09:34:52.970Z,23.32
2018-09-27T09:37:36.586Z,25.35
2018-09-27T09:40:19.562Z,16.25
2018-09-27T09:43:02.391Z,21.57
2018-09-27T09:45:44.855Z,16.40
2018-09-27T09:48:27.887Z,16.60
2018-09-27T09:51:10.371Z,13.18
2018-09-27T09:53:53.327Z,19.87
2018-09-27T09:56:36.510Z,14.47
2018-09-27T09:59:20.654Z,16.62
2018-09-27T10:02:03.399Z,15.13
2018-09-27T10:04:46.706Z,12.63
2018-09-27T10:07:29.509Z,18.15
2018-09-27T10:10:12.544Z,15.45
2018-09-27T10:12:55.209Z,12.13
2018-09-27T10:15:38.444Z,24.30
2018-09-27T10:18:21.312Z,13.83
2018-09-27T10:21:04.261Z,16.45
2018-09-27T10:23:47.217Z,14.78
2018-09-27T10:26:30.288Z,12.65
2018-09-27T10:29:13.095Z,22.48
2018-09-27T10:31:55.923Z,12.58
2018-09-27T10:34:40.334Z,19.25
2018-09-27T10:37:22.539Z,13.93
2018-09-27T10:40:05.943Z,13.83
2018-09-27T10:42:48.698Z,15.00
2018-09-27T10:45:32.146Z,17.42
2018-09-27T10:48:14.718Z,10.43
2018-09-27T10:50:58.030Z,23.57
2018-09-27T10:53:40.619Z,14.93
2018-09-27T10:56:23.399Z,21.77
2018-09-27T10:59:06.143Z,10.50
2018-09-27T11:01:48.891Z,16.75
2018-09-27T11:04:31.573Z,18.17
2018-09-27T11:07:14.237Z,12.63
2018-09-27T11:09:57.009Z,8.15
2018-09-27T11:12:39.706Z,10.08
2018-09-27T11:15:22.452Z,4.75
2018-09-27T11:18:05.010Z,17.40
2018-09-27T11:20:47.599Z,11.10
2018-09-27T11:23:30.850Z,13.98
2018-09-27T11:26:13.915Z,13.83
2018-09-27T11:29:02.008Z,9.60
2018-09-27T11:31:49.903Z,14.13
2018-09-27T11:34:32.813Z,13.03
2018-09-27T11:37:15.751Z,15.53
2018-09-27T11:39:58.864Z,12.05
2018-09-27T11:42:41.565Z,8.53
2018-09-27T11:45:24.484Z,9.75
2018-09-27T11:48:07.784Z,9.68
2018-09-27T11:50:50.038Z,27.82
2018-09-27T11:53:33.278Z,14.78
2018-09-27T11:56:15.675Z,12.43
2018-09-27T11:58:59.263Z,9.28
2018-09-27T12:01:41.716Z,14.15
2018-09-27T12:04:24.321Z,9.30
2018-09-27T12:07:07.142Z,17.67
2018-09-27T12:09:50.111Z,12.93
2018-09-27T12:12:33.183Z,8.95
2018-09-27T12:15:15.866Z,15.90
2018-09-27T12:17:58.745Z,18.48
2018-09-27T12:20:41.324Z,12.60
2018-09-27T12:23:24.107Z,11.80
2018-09-27T12:26:07.423Z,19.23
2018-09-27T12:28:50.210Z,8.08
2018-09-27T12:31:32.794Z,11.15
2018-09-27T12:34:15.574Z,11.05
2018-09-27T12:36:58.511Z,21.75
2018-09-27T12:39:41.902Z,16.80
2018-09-27T12:42:25.303Z,15.53
2018-09-27T12:45:08.551Z,12.45
2018-09-27T12:47:51.677Z,14.25
2018-09-27T12:50:34.383Z,13.88
2018-09-27T12:53:17.240Z,15.63
2018-09-27T12:56:00.118Z,8.70
2018-09-27T12:58:42.967Z,9.63
2018-09-27T13:01:25.834Z,7.78
2018-09-27T13:04:08.717Z,7.72
2018-09-27T13:06:51.749Z,10.25
2018-09-27T13:09:34.712Z,9.80
2018-09-27T13:12:17.414Z,16.40
2018-09-27T13:15:00.143Z,12.40
2018-09-27T13:17:43.052Z,12.28
2018-09-27T13:20:26.091Z,20.43
2018-09-27T13:23:08.887Z,9.75
2018-09-27T13:25:52.375Z,11.65
2018-09-27T13:28:34.825Z,11.48
2018-09-27T13:31:17.761Z,10.43
2018-09-27T13:34:01.413Z,13.18
2018-09-27T13:36:44.606Z,11.20
2018-09-27T13:39:27.579Z,16.10
2018-09-27T13:42:10.272Z,11.85
2018-09-27T13:44:53.092Z,7.17
2018-09-27T13:47:36.109Z,11.55
2018-09-27T13:50:19.702Z,9.83
2018-09-27T13:53:03.083Z,10.90
2018-09-27T13:55:45.768Z,10.50
2018-09-27T13:58:29.108Z,13.30
2018-09-27T14:01:11.704Z,11.90
2018-09-27T14:03:54.726Z,9.80
2018-09-27T14:06:37.610Z,24.77
2018-09-27T14:09:21.376Z,9.93
2018-09-27T14:12:07.455Z,17.27
2018-09-27T14:14:50.533Z,9.17
2018-09-27T14:17:33.627Z,12.60
2018-09-27T14:20:16.330Z,13.27
2018-09-27T14:22:59.758Z,11.17
2018-09-27T14:25:43.859Z,13.80
2018-09-27T14:28:30.839Z,24.03
2018-09-27T14:31:13.918Z,23.17
2018-09-27T14:33:56.714Z,12.97
2018-09-27T14:36:39.831Z,15.63
2018-09-27T14:39:24.126Z,19.00
2018-09-27T14:42:06.526Z,15.67
2018-09-27T14:44:49.297Z,19.53
2018-09-27T14:47:31.988Z,10.30
2018-09-27T14:50:15.048Z,13.07
2018-09-27T14:52:57.501Z,10.67
2018-09-27T14:55:40.494Z,11.27
2018-09-27T14:58:22.797Z,16.70
2018-09-27T15:01:06.038Z,13.97
2018-09-27T15:03:49.114Z,14.20
2018-09-27T15:06:32.362Z,12.17
2018-09-27T15:09:15.423Z,15.20
2018-09-27T15:11:58.414Z,11.43
2018-09-27T15:14:41.728Z,13.50
2018-09-27T15:17:24.358Z,12.70
2018-09-27T15:20:07.259Z,20.90
2018-09-27T15:22:50.303Z,18.97
2018-09-27T15:25:33.136Z,31.23
2018-09-27T15:28:15.762Z,24.20
2018-09-27T15:30:58.838Z,14.90
2018-09-27T15:33:42.440Z,11.83
2018-09-27T15:36:24.924Z,20.00
2018-09-27T15:39:09.207Z,17.50
2018-09-27T15:41:51.898Z,10.97
2018-09-27T15:44:34.259Z,12.33
2018-09-27T15:47:17.285Z,14.23
2018-09-27T15:50:01.404Z,17.63
2018-09-27T15:52:43.935Z,19.73
2018-09-27T15:55:27.594Z,11.23
2018-09-27T15:58:10.210Z,10.20
2018-09-27T16:00:52.767Z,15.10
2018-09-27T16:03:35.686Z,31.80
2018-09-27T16:06:18.492Z,12.93
2018-09-27T16:09:01.878Z,24.47
2018-09-27T16:11:44.164Z,12.80
2018-09-27T16:14:27.094Z,16.97
2018-09-27T16:17:10.394Z,22.33
2018-09-27T16:19:52.969Z,23.67
2018-09-27T16:22:35.924Z,16.20
2018-09-27T16:25:18.882Z,8.07
2018-09-27T16:28:02.235Z,7.83
2018-09-27T16:30:44.522Z,22.30
2018-09-27T16:33:27.613Z,20.53
2018-09-27T16:36:10.938Z,12.83
2018-09-27T16:38:53.613Z,19.20
2018-09-27T16:41:36.737Z,9.50
2018-09-27T16:44:19.015Z,15.20
2018-09-27T16:47:02.126Z,10.57
2018-09-27T16:49:45.459Z,16.27
2018-09-27T16:52:27.848Z,10.30
2018-09-27T16:55:10.865Z,8.00
2018-09-27T16:57:53.814Z,13.43
2018-09-27T17:00:36.866Z,15.73
2018-09-27T17:03:19.539Z,15.40
2018-09-27T17:06:02.226Z,9.57
2018-09-27T17:08:44.878Z,17.60
2018-09-27T17:11:27.482Z,20.60
2018-09-27T17:14:10.462Z,11.37
2018-09-27T17:16:53.396Z,10.97
2018-09-27T17:19:35.863Z,16.50
2018-09-27T17:22:18.939Z,12.33
2018-09-27T17:25:01.983Z,16.17
2018-09-27T17:27:45.028Z,10.70
2018-09-27T17:30:27.852Z,20.57
2018-09-27T17:33:11.027Z,12.97
2018-09-27T17:35:53.554Z,13.90
2018-09-27T17:38:36.484Z,17.33
2018-09-27T17:41:21.038Z,20.03
2018-09-27T17:44:03.747Z,18.57
2018-09-27T17:46:46.485Z,10.40
2018-09-27T17:49:30.454Z,14.97
2018-09-27T17:52:12.906Z,11.60
2018-09-27T17:54:56.042Z,21.30
2018-09-27T17:57:40.148Z,13.87
2018-09-27T18:00:22.995Z,12.43
2018-09-27T18:03:05.735Z,22.50
2018-09-27T18:05:48.649Z,12.87
2018-09-27T18:08:31.672Z,16.10
2018-09-27T18:11:14.376Z,18.10
2018-09-27T18:13:57.471Z,12.00
2018-09-27T18:16:40.070Z,22.47
2018-09-27T18:19:22.602Z,24.03
2018-09-27T18:22:05.398Z,16.17
2018-09-27T18:24:48.688Z,33.10
2018-09-27T18:27:31.177Z,20.97
2018-09-27T18:30:14.239Z,18.07
2018-09-27T18:32:57.298Z,17.50
2018-09-27T18:35:40.582Z,32.77
2018-09-27T18:38:23.390Z,24.33
2018-09-27T18:41:06.518Z,19.27
2018-09-27T18:43:49.171Z,23.83
2018-09-27T18:46:32.826Z,24.93
2018-09-27T18:49:15.311Z,8.93
2018-09-27T18:51:58.124Z,22.67
2018-09-27T18:54:40.835Z,15.17
2018-09-27T18:57:23.968Z,22.67
2018-09-27T19:00:07.040Z,14.70
2018-09-27T19:02:49.786Z,12.70
2018-09-27T19:05:33.026Z,13.63
2018-09-27T19:08:15.863Z,12.50
2018-09-27T19:10:58.172Z,11.87
2018-09-27T19:13:41.326Z,11.77
2018-09-27T19:16:24.005Z,25.57
2018-09-27T19:19:07.309Z,20.23
2018-09-27T19:21:50.359Z,13.90
2018-09-27T19:24:33.093Z,13.00
2018-09-27T19:27:15.963Z,12.03
2018-09-27T19:29:58.741Z,10.97
2018-09-27T19:32:41.588Z,14.10
2018-09-27T19:35:24.052Z,13.07
2018-09-27T19:38:06.709Z,14.60
2018-09-27T19:40:49.687Z,9.70
2018-09-27T19:43:32.976Z,14.40
2018-09-27T19:46:15.875Z,12.37
2018-09-27T19:48:58.926Z,16.40
2018-09-27T19:51:41.335Z,10.10
2018-09-27T19:54:24.063Z,22.53
2018-09-27T19:57:07.214Z,14.73
2018-09-27T19:59:51.104Z,15.03
2018-09-27T20:02:34.215Z,16.80
2018-09-27T20:05:17.578Z,23.43
2018-09-27T20:08:01.316Z,11.63
2018-09-27T20:10:44.411Z,17.13
2018-09-27T20:13:27.370Z,11.07
2018-09-27T20:16:09.960Z,21.93
2018-09-27T20:18:52.424Z,11.90
2018-09-27T20:21:35.058Z,13.90
2018-09-27T20:24:18.197Z,15.10
2018-09-27T20:27:01.054Z,11.60
2018-09-27T20:29:43.992Z,11.07
2018-09-27T20:32:27.949Z,13.87
2018-09-27T20:35:12.190Z,11.33
2018-09-27T20:40:50.314Z,14.87
2018-09-27T20:43:33.244Z,11.30
2018-09-27T20:46:16.430Z,10.40
2018-09-27T20:48:59.619Z,16.63
2018-09-27T20:51:43.762Z,10.00
2018-09-27T20:54:26.998Z,13.60
2018-09-27T20:57:10.463Z,14.07
2018-09-27T20:59:52.966Z,11.87
2018-09-27T21:02:35.749Z,10.93
2018-09-27T21:05:19.142Z,16.97
2018-09-27T21:08:01.999Z,13.93
2018-09-27T21:10:48.850Z,19.07
2018-09-27T21:13:32.606Z,10.30
2018-09-27T21:16:15.298Z,11.50
2018-09-27T21:18:58.780Z,16.00
2018-09-27T21:21:42.959Z,12.10
2018-09-27T21:24:25.659Z,8.00
2018-09-27T21:27:10.403Z,22.30
2018-09-27T21:29:53.097Z,11.03
2018-09-27T21:32:35.794Z,19.23
2018-09-27T21:35:18.645Z,13.83
2018-09-27T21:38:01.728Z,10.50
2018-09-27T21:40:44.603Z,12.90
2018-09-27T21:43:27.383Z,12.40
2018-09-27T21:46:10.382Z,14.27
2018-09-27T21:48:53.502Z,13.03
2018-09-27T21:51:36.946Z,14.10
2018-09-27T21:54:19.915Z,16.93
2018-09-27T21:57:03.056Z,11.07
2018-09-27T21:59:45.979Z,15.43
2018-09-27T22:02:28.806Z,8.83
2018-09-27T22:05:11.711Z,17.00
2018-09-27T22:07:54.462Z,14.90
2018-09-27T22:10:37.070Z,12.00
2018-09-27T22:13:20.095Z,13.90
2018-09-27T22:16:03.242Z,17.10
2018-09-27T22:18:46.002Z,14.93
2018-09-27T22:21:29.077Z,14.67
2018-09-27T22:24:11.746Z,11.70
2018-09-27T22:26:54.522Z,23.33
2018-09-27T22:29:37.182Z,15.00
2018-09-27T22:32:20.031Z,12.00
2018-09-27T22:35:02.924Z,16.13
2018-09-27T22:37:45.738Z,12.90
2018-09-27T22:40:29.522Z,24.13
2018-09-27T22:43:12.494Z,21.87
2018-09-27T22:45:54.971Z,14.90
2018-09-27T22:48:37.650Z,21.00
2018-09-27T22:51:22.059Z,11.40
2018-09-27T22:54:04.763Z,19.33
2018-09-27T22:56:47.390Z,14.60
2018-09-27T22:59:30.549Z,16.80
2018-09-27T23:02:13.821Z,24.17
2018-09-27T23:04:56.554Z,13.13
2018-09-27T23:07:39.328Z,19.93
2018-09-27T23:10:21.940Z,14.13
2018-09-27T23:13:04.937Z,16.40
2018-09-27T23:15:47.657Z,15.13
2018-09-27T23:18:30.610Z,12.33
2018-09-27T23:21:13.663Z,14.87
2018-09-27T23:23:56.586Z,19.57
2018-09-27T23:26:39.008Z,16.03
2018-09-27T23:29:21.797Z,17.63
2018-09-27T23:32:04.903Z,12.13
2018-09-27T23:34:47.625Z,12.77
2018-09-27T23:37:30.166Z,13.90
2018-09-27T23:40:13.009Z,16.23
2018-09-27T23:42:55.642Z,13.70
2018-09-27T23:45:38.851Z,17.10
2018-09-27T23:48:21.735Z,15.03
2018-09-27T23:51:04.263Z,20.90
2018-09-27T23:53:47.010Z,14.00
2018-09-27T23:56:29.623Z,8.27
2018-09-27T23:59:12.478Z,15.93
